Nearby METAR Reports

 

KICL - Clarinda, Iowa, USA
Distance from station: N 49mi, 79km
Updated: Wed, 21-Nov-2018 12:15pm CST
Clear
Clear
 Wind from S
Wind: S 6 mph , 9 km/h
Temperature: 45°F , 7°C
Wind Chill: 42°F , 6°C
Dew Point: 34°F , 1°C
Humidity: 66%
Barometer: 30.22 inHg , 1023.4 hPa
Clouds: Clear
Visibility: 10 miles , 16 km
2018/11/21 18:15 KICL 211815Z AUTO 19005KT 10SM CLR 07/01 A3022 RMK AO2
KDSM - Des Moines, Iowa, USA
Distance from station: NNE 122mi, 196km
Updated: Wed, 21-Nov-2018 11:54am CST
Mist, Overcast
Mist, Overcast
 Wind from ESE
Wind: ESE 9 mph , 15 km/h
Temperature: 32°F , 0°C
Wind Chill: 24°F , -4°C
Dew Point: 30°F , -1°C
Humidity: 93%
Barometer: 30.26 inHg , 1024.7 hPa
Summary: Mist
Clouds: Overcast
Visibility: 4 miles , 6 km
Cloud details: Overcast 400 ft
2018/11/21 17:54 KDSM 211754Z 11008KT 4SM BR OVC004 00/M01 A3026 RMK AO2 SLP256 I6000 T00001006 10000 21033 58003
KFNB - Falls City, Nebraska, USA
Distance from station: W 50mi, 80km
Updated: Wed, 21-Nov-2018 11:53am CST
Clear
Clear
 Wind from varies
Wind: varies 3 mph , 6 km/h
Temperature: 54°F , 12°C
Dew Point: 36°F , 2°C
Humidity: 51%
Barometer: 30.20 inHg , 1022.7 hPa
Clouds: Clear
Visibility: 10 miles , 16 km
2018/11/21 17:53 KFNB 211753Z AUTO VRB03KT 10SM CLR 12/02 A3020 RMK AO2 SLP229 T01170017 10117 21011 58004
 
KMCI - Kansas City, Missouri, USA
Distance from station: S 65mi, 104km
Updated: Wed, 21-Nov-2018 11:53am CST
Clear
Clear
 Wind from SW
Wind: SW 12 mph , 19 km/h
Temperature: 54°F , 12°C
Dew Point: 34°F , 1°C
Humidity: 47%
Barometer: 30.24 inHg , 1024 hPa
Clouds: Clear
Visibility: 10 miles , 16 km
2018/11/21 17:53 KMCI 211753Z 22010KT 10SM CLR 12/01 A3024 RMK AO2 SLP242 T01220006 10122 21006 58002
KOMA - Omaha, Nebraska, USA
Distance from station: NNW 105mi, 169km
Updated: Wed, 21-Nov-2018 11:52am CST
Clear
Clear
 Wind from S
Wind: S 8 mph , 13 km/h
Temperature: 46°F , 8°C
Wind Chill: 42°F , 6°C
Dew Point: 34°F , 1°C
Humidity: 62%
Barometer: 30.18 inHg , 1022 hPa
Clouds: Clear
Visibility: 10 miles , 16 km
2018/11/21 17:52 KOMA 211752Z 19007KT 10SM CLR 08/01 A3018 RMK AO2 SLP228 I6001 T00830006 10083 21033 58008
KRDK - Red Oak, Iowa, USA
Distance from station: N 70mi, 112km
Updated: Wed, 21-Nov-2018 12:15pm CST
Clear
Clear
 Wind from SSE
Wind: SSE 6 mph , 9 km/h
Temperature: 46°F , 8°C
Wind Chill: 43°F , 6°C
Dew Point: 36°F , 2°C
Humidity: 66%
Barometer: 30.19 inHg , 1022.4 hPa
Clouds: Clear
Visibility: 10 miles , 16 km
2018/11/21 18:15 KRDK 211815Z AUTO 16005KT 10SM CLR 08/02 A3019 RMK AO2
 
KSTJ - Saint Joseph, Missouri, USA
Distance from station: SW 23mi, 37km
Updated: Wed, 21-Nov-2018 11:53am CST
Clear
Clear
 Wind from SSW
Wind: SSW 8 mph , 13 km/h
Temperature: 54°F , 12°C
Dew Point: 36°F , 2°C
Humidity: 51%
Barometer: 30.23 inHg , 1023.7 hPa
Clouds: Clear
Visibility: 10 miles , 16 km
2018/11/21 17:53 KSTJ 211753Z 21007KT 10SM CLR 12/02 A3023 RMK AO2 SLP240 I6000 T01170022 10117 21050 58006
KTOP - Topeka, Kansas, USA
Distance from station: SW 85mi, 137km
Updated: Wed, 21-Nov-2018 11:53am CST
Clear
Clear
 Wind from S
Wind: S 8 mph , 13 km/h
Temperature: 55°F , 13°C
Dew Point: 34°F , 1°C
Humidity: 44%
Barometer: 30.24 inHg , 1024 hPa
Clouds: Clear
Visibility: 10 miles , 16 km
2018/11/21 17:53 KTOP 211753Z 18007KT 10SM CLR 13/01 A3024 RMK AO2 SLP240 T01280006 10128 21022 58005
KICT - Wichita, Kansas, USA
Distance from station: SW 215mi, 346km
Updated: Wed, 21-Nov-2018 11:53am CST
Clear
Clear
 Wind from SSW
Wind: SSW 16 mph , 26 km/h
Temperature: 54°F , 12°C
Dew Point: 36°F , 2°C
Humidity: 51%
Barometer: 30.24 inHg , 1024 hPa
Clouds: Clear
Visibility: 10 miles , 16 km
2018/11/21 17:53 KICT 211753Z 21014KT 10SM CLR 12/02 A3024 RMK AO2 SLP244 T01170017 10117 21022 58009 $